Time;durP1;ratioP1;P1;durP2;ratioP2;P2;SDS_P1;SDS_P2;PMS_P1;PMS_P2;Temp;Humidity;BMP_temperature;BMP_pressure;BME280_temperature;BME280_humidity;BME280_pressure;Samples;Min_cycle;Max_cycle;Signal;HPM_P1;HPM_P2
2023/12/28 00:02:44;;;;;;;26.03;9.63;;;0.50;99.90;;;;;;4417717;28;659174;-75
2023/12/28 00:05:31;;;;;;;36.23;12.77;;;0.50;99.90;;;;;;4436102;28;657954;-75
2023/12/28 00:08:19;;;;;;;26.30;10.33;;;0.60;99.90;;;;;;4409392;28;659137;-75
2023/12/28 00:11:06;;;;;;;23.13;10.47;;;0.50;99.90;;;;;;4422055;28;658922;-75
2023/12/28 00:13:53;;;;;;;23.33;9.90;;;0.50;99.90;;;;;;4415632;28;659053;-75
2023/12/28 00:16:41;;;;;;;26.40;10.43;;;0.40;99.90;;;;;;4433468;28;658785;-75
2023/12/28 00:19:29;;;;;;;24.37;11.07;;;0.50;99.90;;;;;;4399977;28;659156;-75
2023/12/28 00:22:16;;;;;;;26.97;12.00;;;0.50;99.90;;;;;;4432894;28;659281;-75
2023/12/28 00:25:03;;;;;;;32.13;12.17;;;0.50;99.90;;;;;;4392306;28;659066;-75
2023/12/28 00:27:51;;;;;;;30.90;14.17;;;0.50;99.90;;;;;;4430881;28;659139;-75
2023/12/28 00:30:38;;;;;;;29.80;12.60;;;0.40;99.90;;;;;;4411323;28;658831;-75
2023/12/28 00:33:26;;;;;;;21.73;9.87;;;0.40;99.90;;;;;;4424307;28;658950;-75
2023/12/28 00:36:14;;;;;;;27.80;11.20;;;0.40;99.90;;;;;;4402015;28;657815;-75
2023/12/28 00:39:01;;;;;;;27.20;11.13;;;0.30;99.90;;;;;;4428302;28;659334;-75
2023/12/28 00:41:48;;;;;;;24.07;10.60;;;0.30;99.90;;;;;;4421105;28;659085;-75
2023/12/28 00:44:35;;;;;;;24.90;11.63;;;0.10;99.90;;;;;;4428933;28;659257;-75
2023/12/28 00:47:22;;;;;;;23.00;9.50;;;0.20;99.90;;;;;;4405132;28;658681;-75
2023/12/28 00:50:14;;;;;;;24.17;10.10;;;0.20;99.90;;;;;;4419577;28;658558;-75
2023/12/28 00:53:01;;;;;;;24.77;10.15;;;0.20;99.90;;;;;;4396121;28;658731;-75
2023/12/28 00:55:49;;;;;;;25.50;9.60;;;0.30;99.90;;;;;;4393997;28;658561;-75
2023/12/28 00:58:39;;;;;;;40.93;14.70;;;0.10;99.90;;;;;;4427074;28;657560;-75
2023/12/28 01:01:26;;;;;;;40.47;14.33;;;0.10;99.90;;;;;;4398943;28;658559;-76
2023/12/28 01:04:14;;;;;;;31.53;12.17;;;0.20;99.90;;;;;;4399432;28;658816;-75
2023/12/28 01:07:04;;;;;;;38.27;15.87;;;0.20;99.90;;;;;;4429191;28;658922;-75
2023/12/28 01:09:51;;;;;;;91.33;33.23;;;0.10;99.90;;;;;;4403537;28;658234;-75
2023/12/28 01:12:38;;;;;;;67.47;24.93;;;0.20;99.90;;;;;;4402159;28;658665;-75
2023/12/28 01:15:26;;;;;;;66.57;23.70;;;0.20;99.90;;;;;;4418888;28;661155;-75
2023/12/28 01:18:13;;;;;;;69.57;24.83;;;0.10;99.90;;;;;;4397969;28;658351;-75
2023/12/28 01:21:00;;;;;;;60.80;21.37;;;0.20;99.90;;;;;;4427558;28;658814;-75
2023/12/28 01:23:49;;;;;;;58.75;20.23;;;0.20;99.90;;;;;;4403677;28;658169;-75
2023/12/28 01:26:36;;;;;;;63.27;22.80;;;0.20;99.90;;;;;;4437814;28;658339;-75
2023/12/28 01:29:23;;;;;;;49.20;17.57;;;0.20;99.90;;;;;;4401992;28;658726;-75
2023/12/28 01:32:11;;;;;;;44.10;17.57;;;0.10;99.90;;;;;;4419392;28;659131;-75
2023/12/28 01:34:58;;;;;;;49.67;17.83;;;0.10;99.90;;;;;;4391493;28;658766;-75
2023/12/28 01:37:45;;;;;;;43.97;15.57;;;0.10;99.90;;;;;;4426693;28;659288;-75
2023/12/28 01:40:34;;;;;;;42.70;16.47;;;0.10;99.90;;;;;;4417566;28;658501;-75
2023/12/28 01:43:21;;;;;;;44.67;16.80;;;0.10;99.90;;;;;;4421165;28;658745;-75
2023/12/28 01:46:09;;;;;;;59.20;20.87;;;0.10;99.90;;;;;;4391835;28;658882;-75
2023/12/28 01:48:57;;;;;;;73.40;27.63;;;0.10;99.90;;;;;;4412610;28;658562;-75
2023/12/28 01:51:44;;;;;;;62.30;24.10;;;0.20;99.90;;;;;;4397546;28;659369;-75
2023/12/28 01:54:31;;;;;;;67.47;27.60;;;0.10;99.90;;;;;;4423991;28;658743;-75
2023/12/28 01:57:19;;;;;;;64.10;27.07;;;0.10;99.90;;;;;;4398777;28;659315;-75
2023/12/28 02:00:08;;;;;;;56.53;25.07;;;0.10;99.90;;;;;;4422813;28;658489;-75
2023/12/28 02:02:55;;;;;;;57.87;24.93;;;0.10;99.90;;;;;;4405989;28;658691;-75
2023/12/28 02:05:42;;;;;;;59.97;24.47;;;0.00;99.90;;;;;;4409689;28;658823;-75
2023/12/28 02:08:30;;;;;;;111.67;33.07;;;0.00;99.90;;;;;;4427061;28;659497;-75
2023/12/28 02:11:17;;;;;;;339.73;86.87;;;-0.10;99.90;;;;;;4432547;28;659882;-75
2023/12/28 02:14:05;;;;;;;210.23;58.50;;;-0.10;99.90;;;;;;4400831;28;660617;-75
2023/12/28 02:17:02;;;;;;;66.87;22.63;;;-0.10;99.90;;;;;;4409162;28;661260;-75
2023/12/28 02:19:51;;;;;;;97.70;29.27;;;0.00;99.90;;;;;;4399056;28;659946;-75
2023/12/28 02:22:40;;;;;;;51.23;16.60;;;-0.10;99.90;;;;;;4408424;28;658420;-75
2023/12/28 02:25:29;;;;;;;52.83;17.33;;;0.00;99.90;;;;;;4406928;28;659881;-75
2023/12/28 02:28:16;;;;;;;34.23;12.77;;;0.00;99.90;;;;;;4424370;28;658911;-75
2023/12/28 02:31:03;;;;;;;30.50;10.90;;;-0.10;99.90;;;;;;4394839;28;658339;-75
2023/12/28 02:33:54;;;;;;;78.90;25.60;;;-0.10;99.90;;;;;;4422195;28;659830;-75
2023/12/28 02:36:42;;;;;;;41.97;15.35;;;0.00;99.90;;;;;;4410597;28;659475;-75
2023/12/28 02:39:29;;;;;;;31.73;11.77;;;0.00;99.90;;;;;;4398152;28;659581;-75
2023/12/28 02:42:18;;;;;;;25.30;9.73;;;-0.20;99.90;;;;;;4417574;28;658717;-75
2023/12/28 02:45:06;;;;;;;172.40;40.90;;;0.00;99.90;;;;;;4401402;28;658831;-75
2023/12/28 02:47:53;;;;;;;142.33;34.50;;;0.00;99.90;;;;;;4403969;28;660055;-75
2023/12/28 02:50:40;;;;;;;118.40;32.07;;;0.00;99.90;;;;;;4435774;28;660508;-75
2023/12/28 02:53:27;;;;;;;170.98;41.63;;;0.00;99.90;;;;;;4400366;28;659874;-75
2023/12/28 02:56:15;;;;;;;182.00;43.33;;;0.00;99.90;;;;;;4411794;28;660804;-75
2023/12/28 02:59:03;;;;;;;155.13;40.87;;;0.00;99.90;;;;;;4430033;28;658967;-75
2023/12/28 03:01:50;;;;;;;102.10;28.33;;;-0.10;99.90;;;;;;4409044;28;659994;-75
2023/12/28 03:04:37;;;;;;;62.67;20.13;;;-0.20;99.90;;;;;;4394026;28;660357;-75
2023/12/28 03:07:25;;;;;;;37.03;11.83;;;-0.20;99.90;;;;;;4419081;28;661116;-77
2023/12/28 03:10:12;;;;;;;48.00;16.97;;;-0.10;99.90;;;;;;4430286;28;659899;-75
2023/12/28 03:13:00;;;;;;;42.47;15.53;;;-0.10;99.90;;;;;;4431386;28;660212;-75
2023/12/28 03:15:49;;;;;;;51.10;19.57;;;-0.10;99.90;;;;;;4395040;28;660253;-75
2023/12/28 03:18:36;;;;;;;249.40;79.27;;;-0.20;99.90;;;;;;4420302;28;659371;-75
2023/12/28 03:21:23;;;;;;;75.87;28.70;;;-0.40;99.90;;;;;;4410843;28;660580;-75
2023/12/28 03:24:11;;;;;;;69.30;28.47;;;-0.40;99.90;;;;;;4421980;28;660541;-75
2023/12/28 03:26:58;;;;;;;41.23;19.03;;;-0.50;99.90;;;;;;4400520;28;659687;-75
2023/12/28 03:29:45;;;;;;;44.40;20.40;;;-0.40;99.90;;;;;;4430804;28;659526;-75
2023/12/28 03:32:34;;;;;;;44.55;16.52;;;-0.50;99.90;;;;;;4405417;28;660066;-75
2023/12/28 03:35:21;;;;;;;33.50;11.93;;;-0.60;99.90;;;;;;4418430;28;659368;-75
2023/12/28 03:38:08;;;;;;;32.97;11.47;;;-0.60;99.90;;;;;;4402238;28;659784;-75
2023/12/28 03:40:55;;;;;;;32.00;10.70;;;-0.60;99.90;;;;;;4424423;28;659995;-75
2023/12/28 03:43:43;;;;;;;27.77;10.47;;;-0.50;99.90;;;;;;4403694;28;659568;-75
2023/12/28 03:46:30;;;;;;;45.53;17.37;;;-0.50;99.90;;;;;;4413366;28;660820;-75
2023/12/28 03:49:19;;;;;;;37.90;16.80;;;-0.50;99.90;;;;;;4417631;28;660391;-75
2023/12/28 03:52:07;;;;;;;39.00;17.60;;;-0.60;99.90;;;;;;4427198;28;659485;-75
2023/12/28 03:54:54;;;;;;;38.73;17.03;;;-0.60;99.90;;;;;;4399965;28;660488;-75
2023/12/28 03:57:42;;;;;;;34.17;16.20;;;-0.70;99.90;;;;;;4409050;28;659808;-75
2023/12/28 04:00:29;;;;;;;33.57;14.90;;;-0.70;99.90;;;;;;4409612;28;660484;-75
2023/12/28 04:03:16;;;;;;;34.30;14.43;;;-0.80;99.90;;;;;;4416821;28;661381;-75
2023/12/28 04:06:05;;;;;;;28.57;13.83;;;-0.60;99.90;;;;;;4407482;28;659506;-75
2023/12/28 04:08:52;;;;;;;27.97;12.27;;;-0.60;99.90;;;;;;4409386;28;659915;-75
2023/12/28 04:11:39;;;;;;;30.87;14.50;;;-0.60;99.90;;;;;;4435387;28;661316;-75
2023/12/28 04:14:27;;;;;;;24.43;9.17;;;-0.70;99.90;;;;;;4423453;28;659358;-75
2023/12/28 04:17:14;;;;;;;28.30;10.47;;;-0.70;99.90;;;;;;4402495;28;658616;-75
2023/12/28 04:20:01;;;;;;;16.20;7.60;;;-0.70;99.90;;;;;;4416746;28;659756;-75
2023/12/28 04:22:50;;;;;;;19.93;8.60;;;-0.70;99.90;;;;;;4399733;28;658648;-75
2023/12/28 04:25:37;;;;;;;18.27;8.00;;;-0.50;99.90;;;;;;4422823;28;657761;-75
2023/12/28 04:28:24;;;;;;;18.47;7.30;;;-0.60;99.90;;;;;;4396194;28;659719;-75
2023/12/28 04:31:11;;;;;;;16.17;8.13;;;-0.60;99.90;;;;;;4417647;28;658371;-75
2023/12/28 04:33:58;;;;;;;20.30;8.50;;;-0.40;99.90;;;;;;4394968;28;660380;-75
2023/12/28 04:36:46;;;;;;;19.43;8.63;;;-0.40;99.90;;;;;;4415012;28;659315;-75
2023/12/28 04:39:35;;;;;;;19.27;8.77;;;-0.40;99.90;;;;;;4418140;28;659312;-75
2023/12/28 04:42:22;;;;;;;22.53;9.53;;;-0.50;99.90;;;;;;4420374;28;658485;-75
2023/12/28 04:45:10;;;;;;;27.83;12.13;;;-0.40;99.90;;;;;;4423887;28;659279;-75
2023/12/28 04:47:57;;;;;;;28.25;13.95;;;-0.50;99.90;;;;;;4398690;28;659440;-75
2023/12/28 04:50:45;;;;;;;28.53;13.23;;;-0.60;99.90;;;;;;4412035;28;660963;-75
2023/12/28 04:53:33;;;;;;;29.10;11.70;;;-0.60;99.90;;;;;;4422756;28;659180;-75
2023/12/28 04:56:22;;;;;;;28.23;12.50;;;-0.50;99.90;;;;;;4398761;28;660269;-75
2023/12/28 04:59:09;;;;;;;23.50;10.07;;;-0.50;99.90;;;;;;4407046;28;660426;-75
2023/12/28 05:01:56;;;;;;;17.10;7.93;;;-0.50;99.90;;;;;;4424116;28;659462;-75
2023/12/28 05:04:43;;;;;;;24.10;8.87;;;-0.40;99.90;;;;;;4399579;28;659508;-75
2023/12/28 05:07:30;;;;;;;24.80;9.27;;;-0.40;99.90;;;;;;4429842;28;659368;-75
2023/12/28 05:10:18;;;;;;;27.23;11.37;;;-0.30;99.90;;;;;;4393680;28;658829;-75
2023/12/28 05:13:06;;;;;;;28.40;10.40;;;-0.20;99.90;;;;;;4413757;28;660759;-75
2023/12/28 05:15:53;;;;;;;31.87;14.37;;;0.00;99.90;;;;;;4401014;28;659640;-75
2023/12/28 05:18:40;;;;;;;34.88;14.88;;;0.10;99.90;;;;;;4428303;28;658850;-75
2023/12/28 05:21:28;;;;;;;35.70;15.50;;;0.10;99.90;;;;;;4399415;28;659038;-75
2023/12/28 05:24:15;;;;;;;32.53;14.03;;;0.10;99.90;;;;;;4413912;28;659336;-75
2023/12/28 05:27:02;;;;;;;32.10;14.00;;;0.20;99.90;;;;;;4423148;28;658939;-75
2023/12/28 05:29:51;;;;;;;26.97;12.77;;;0.20;99.90;;;;;;4430488;28;659308;-75
2023/12/28 05:32:38;;;;;;;34.53;13.73;;;0.20;99.90;;;;;;4391082;28;658559;-75
2023/12/28 05:35:25;;;;;;;33.83;15.57;;;0.30;99.90;;;;;;4415274;28;658710;-75
2023/12/28 05:38:12;;;;;;;33.75;12.80;;;0.50;99.90;;;;;;4413598;28;659096;-75
2023/12/28 05:41:00;;;;;;;29.40;14.17;;;0.60;99.90;;;;;;4410910;28;660278;-75
2023/12/28 05:43:47;;;;;;;30.70;14.13;;;0.60;99.90;;;;;;4418728;28;658844;-75
2023/12/28 05:46:36;;;;;;;36.07;13.93;;;0.50;99.90;;;;;;4431875;28;659465;-75
2023/12/28 05:49:25;;;;;;;31.47;14.30;;;0.80;99.90;;;;;;4399968;28;658929;-75
2023/12/28 05:52:14;;;;;;;28.20;13.17;;;0.80;99.90;;;;;;4421524;28;659011;-75
2023/12/28 05:55:02;;;;;;;37.40;14.50;;;0.90;99.90;;;;;;4388944;28;658694;-75
2023/12/28 05:57:49;;;;;;;32.03;14.63;;;0.90;99.90;;;;;;4396625;28;658592;-75
2023/12/28 06:00:38;;;;;;;36.20;14.63;;;1.00;99.90;;;;;;4422912;28;658548;-75
2023/12/28 06:03:28;;;;;;;30.97;13.80;;;1.30;99.90;;;;;;4395695;28;659690;-75
2023/12/28 06:06:15;;;;;;;30.33;14.17;;;1.60;99.90;;;;;;4400352;28;658850;-75
2023/12/28 06:09:03;;;;;;;32.63;14.53;;;1.30;99.90;;;;;;4405494;28;658732;-75
2023/12/28 06:11:50;;;;;;;32.00;15.07;;;1.50;99.90;;;;;;4419465;28;659530;-75
2023/12/28 06:14:37;;;;;;;30.90;14.83;;;1.60;99.90;;;;;;4402290;28;659307;-74
2023/12/28 06:17:25;;;;;;;35.90;14.57;;;1.50;99.90;;;;;;4431076;28;658799;-75
2023/12/28 06:20:14;;;;;;;28.90;13.10;;;2.00;99.90;;;;;;4410802;28;658751;-74
2023/12/28 06:23:01;;;;;;;31.47;14.50;;;2.20;99.90;;;;;;4420197;28;658536;-74
2023/12/28 06:25:48;;;;;;;28.30;13.47;;;2.20;99.90;;;;;;4413953;28;658301;-74
2023/12/28 06:28:35;;;;;;;33.40;14.90;;;2.30;99.90;;;;;;4422811;28;658467;-75
2023/12/28 06:31:23;;;;;;;31.27;13.87;;;2.40;99.90;;;;;;4412996;28;658532;-75
2023/12/28 06:34:10;;;;;;;36.50;15.53;;;2.20;99.90;;;;;;4421752;28;659788;-75
2023/12/28 06:37:01;;;;;;;27.17;12.77;;;2.30;99.90;;;;;;4430455;28;659185;-75
2023/12/28 06:39:48;;;;;;;28.50;14.30;;;2.40;99.90;;;;;;4407517;28;658714;-74
2023/12/28 06:42:35;;;;;;;34.00;14.73;;;2.60;99.90;;;;;;4440664;28;659042;-75
2023/12/28 06:45:27;;;;;;;40.28;17.20;;;2.50;99.90;;;;;;4425313;28;659274;-74
2023/12/28 06:48:14;;;;;;;26.27;12.23;;;2.50;99.90;;;;;;4403400;28;659857;-74
2023/12/28 06:51:02;;;;;;;36.63;17.30;;;2.50;99.90;;;;;;4437854;28;658326;-74
2023/12/28 06:53:50;;;;;;;35.90;16.27;;;2.60;99.90;;;;;;4410791;28;660140;-74
2023/12/28 06:56:37;;;;;;;36.90;16.77;;;2.60;99.90;;;;;;4403230;28;659195;-74
2023/12/28 06:59:25;;;;;;;37.20;17.70;;;2.60;99.90;;;;;;4430319;28;658863;-74
2023/12/28 07:02:12;;;;;;;30.37;14.97;;;2.70;99.90;;;;;;4436608;28;658511;-74
2023/12/28 07:05:00;;;;;;;28.55;13.48;;;2.70;99.90;;;;;;4438509;28;659347;-74
2023/12/28 07:07:47;;;;;;;34.43;14.77;;;2.60;99.90;;;;;;4438923;28;658741;-74
2023/12/28 07:10:35;;;;;;;25.03;11.03;;;2.60;99.90;;;;;;4411371;28;658499;-74
2023/12/28 07:13:22;;;;;;;36.03;16.75;;;2.70;99.90;;;;;;4412773;28;658563;-74
2023/12/28 07:16:10;;;;;;;37.80;18.67;;;2.80;99.90;;;;;;4438405;28;659767;-74
2023/12/28 07:18:57;;;;;;;35.00;17.00;;;2.80;99.90;;;;;;4444527;28;658635;-74
2023/12/28 07:21:44;;;;;;;37.80;17.03;;;2.80;99.90;;;;;;4418367;28;659124;-74
2023/12/28 07:24:31;;;;;;;39.87;18.00;;;2.80;99.90;;;;;;4434062;28;659050;-74
2023/12/28 07:27:20;;;;;;;25.13;12.90;;;2.90;99.90;;;;;;4405967;28;659531;-74
2023/12/28 07:30:08;;;;;;;36.53;14.33;;;3.00;99.90;;;;;;4423758;28;658608;-74
2023/12/28 07:32:55;;;;;;;39.47;18.50;;;3.10;99.90;;;;;;4392668;28;659689;-74
2023/12/28 07:35:42;;;;;;;42.80;20.57;;;3.10;99.90;;;;;;4405071;28;658593;-74
2023/12/28 07:38:30;;;;;;;21.97;12.10;;;3.20;99.90;;;;;;4424475;28;659519;-74
2023/12/28 07:41:17;;;;;;;36.73;16.57;;;3.30;99.90;;;;;;4394929;28;659304;-74
2023/12/28 07:44:06;;;;;;;38.93;19.83;;;3.30;99.90;;;;;;4422896;28;659315;-74
2023/12/28 07:46:53;;;;;;;36.03;18.13;;;3.40;99.90;;;;;;4423813;28;658719;-74
2023/12/28 07:49:41;;;;;;;36.20;14.67;;;3.60;99.90;;;;;;4447589;28;659465;-74
2023/12/28 07:52:28;;;;;;;33.50;16.57;;;3.70;99.90;;;;;;4410565;28;659053;-74
2023/12/28 07:55:15;;;;;;;32.47;15.37;;;3.90;99.90;;;;;;4429814;28;659834;-74
2023/12/28 07:58:03;;;;;;;33.23;15.37;;;4.00;99.90;;;;;;4408860;28;658986;-74
2023/12/28 08:00:51;;;;;;;30.97;14.53;;;4.00;99.90;;;;;;4426381;28;659513;-74
2023/12/28 08:03:38;;;;;;;29.17;14.13;;;4.10;99.90;;;;;;4407695;28;658827;-74
2023/12/28 08:06:26;;;;;;;29.13;13.80;;;4.30;99.90;;;;;;4423201;28;658858;-74
2023/12/28 08:09:13;;;;;;;33.73;15.67;;;4.40;99.90;;;;;;4400443;28;659639;-74
2023/12/28 08:12:00;;;;;;;29.00;13.63;;;4.60;99.90;;;;;;4431615;28;659374;-74
2023/12/28 08:14:47;;;;;;;27.77;13.47;;;4.60;99.90;;;;;;4407895;28;658430;-74
2023/12/28 08:17:36;;;;;;;31.70;14.23;;;4.60;99.90;;;;;;4427544;28;659612;-74
2023/12/28 08:20:23;;;;;;;26.33;13.90;;;4.70;99.90;;;;;;4397825;28;658790;-74
2023/12/28 08:23:10;;;;;;;25.40;13.40;;;4.80;99.90;;;;;;4417885;28;659228;-74
2023/12/28 08:25:57;;;;;;;26.23;13.07;;;5.00;99.90;;;;;;4397047;28;658529;-74
2023/12/28 08:28:45;;;;;;;24.53;12.47;;;5.40;99.90;;;;;;4409654;28;659710;-74
2023/12/28 08:31:32;;;;;;;33.23;13.27;;;5.70;99.90;;;;;;4393670;28;659200;-74
2023/12/28 08:34:21;;;;;;;24.85;11.60;;;5.80;99.90;;;;;;4420539;28;660151;-73
2023/12/28 08:37:08;;;;;;;25.57;12.60;;;6.00;99.90;;;;;;4395258;28;658433;-74
2023/12/28 08:39:55;;;;;;;26.00;13.17;;;6.10;99.90;;;;;;4416790;28;658702;-74
2023/12/28 08:42:43;;;;;;;31.13;12.90;;;6.10;99.90;;;;;;4396626;28;658355;-74
2023/12/28 08:45:30;;;;;;;29.07;14.03;;;6.10;99.90;;;;;;4415422;28;659480;-74
2023/12/28 08:48:18;;;;;;;25.93;12.57;;;6.10;99.90;;;;;;4394700;28;658739;-74
2023/12/28 08:51:06;;;;;;;18.47;8.37;;;6.10;99.90;;;;;;4415357;28;658939;-74
2023/12/28 08:53:53;;;;;;;23.47;12.10;;;6.20;99.90;;;;;;4396160;28;657690;-74
2023/12/28 08:56:41;;;;;;;23.67;10.18;;;6.00;99.90;;;;;;4417810;28;659925;-74
2023/12/28 08:59:28;;;;;;;24.40;12.10;;;6.00;99.90;;;;;;4398585;28;658921;-74
2023/12/28 09:02:15;;;;;;;15.40;6.80;;;6.20;99.90;;;;;;4395880;28;659331;-74
2023/12/28 09:05:03;;;;;;;19.80;11.23;;;6.50;99.90;;;;;;4403554;28;657717;-75
2023/12/28 09:07:51;;;;;;;14.17;6.53;;;7.10;99.90;;;;;;4419396;28;658986;-75
2023/12/28 09:10:38;;;;;;;28.13;11.00;;;7.40;99.90;;;;;;4390296;28;657607;-74
2023/12/28 09:13:26;;;;;;;24.30;10.60;;;7.30;99.90;;;;;;4415624;28;658990;-75
2023/12/28 09:16:14;;;;;;;11.33;5.00;;;7.40;99.90;;;;;;4392035;28;659408;-75
2023/12/28 09:19:01;;;;;;;21.57;9.63;;;7.40;99.90;;;;;;4431200;28;657478;-75
2023/12/28 09:21:48;;;;;;;24.53;12.13;;;7.50;99.90;;;;;;4406977;28;658043;-75
2023/12/28 09:24:37;;;;;;;23.43;11.10;;;7.90;99.90;;;;;;4424165;28;659278;-75
2023/12/28 09:27:25;;;;;;;23.97;11.87;;;8.00;99.90;;;;;;4401142;28;661028;-75
2023/12/28 09:30:13;;;;;;;27.57;11.83;;;7.90;99.90;;;;;;4428893;28;660062;-75
2023/12/28 09:33:00;;;;;;;21.27;11.17;;;8.90;99.90;;;;;;4434128;28;659521;-75
2023/12/28 09:35:47;;;;;;;23.47;11.47;;;8.50;99.90;;;;;;4421608;28;658873;-75
2023/12/28 09:38:35;;;;;;;26.13;10.97;;;9.30;99.90;;;;;;4427905;28;659810;-75
2023/12/28 09:41:26;;;;;;;24.73;11.23;;;9.40;99.90;;;;;;4428748;28;658767;-75
2023/12/28 09:44:14;;;;;;;21.77;9.50;;;9.50;99.90;;;;;;4403803;28;659029;-75
2023/12/28 09:47:04;;;;;;;22.17;10.43;;;8.70;99.90;;;;;;4429724;28;657651;-75
2023/12/28 09:49:52;;;;;;;12.07;6.43;;;9.40;99.90;;;;;;4398800;28;658842;-74
2023/12/28 09:52:39;;;;;;;22.23;10.30;;;10.30;99.90;;;;;;4415447;28;657832;-75
2023/12/28 09:55:26;;;;;;;24.73;10.23;;;10.60;99.90;;;;;;4424802;28;660073;-75
2023/12/28 09:58:15;;;;;;;20.47;9.97;;;12.50;99.90;;;;;;4398572;28;659803;-75
2023/12/28 10:01:02;;;;;;;21.60;10.07;;;12.20;99.90;;;;;;4406268;28;658957;-75
2023/12/28 10:03:50;;;;;;;15.80;8.33;;;11.20;99.90;;;;;;4441756;28;660832;-75
2023/12/28 10:06:37;;;;;;;20.53;9.87;;;10.80;99.90;;;;;;4428024;28;659332;-75
2023/12/28 10:09:26;;;;;;;20.20;10.00;;;10.70;99.90;;;;;;4441092;28;659595;-74
2023/12/28 10:12:13;;;;;;;15.70;8.17;;;11.40;99.90;;;;;;4401961;28;659798;-74
2023/12/28 10:15:02;;;;;;;21.97;10.40;;;11.20;99.90;;;;;;4422805;28;659971;-75
2023/12/28 10:17:49;;;;;;;17.43;8.53;;;10.60;99.90;;;;;;4402924;28;660235;-74
2023/12/28 10:20:37;;;;;;;23.17;10.50;;;11.00;99.90;;;;;;4437510;28;659395;-74
2023/12/28 10:23:25;;;;;;;11.57;5.67;;;11.00;99.90;;;;;;4414367;28;659957;-74
2023/12/28 10:26:14;;;;;;;21.88;10.68;;;11.30;99.90;;;;;;4398950;28;659762;-74
2023/12/28 10:29:03;;;;;;;19.07;9.33;;;11.90;99.90;;;;;;4429409;28;659285;-75
2023/12/28 10:31:52;;;;;;;18.73;9.60;;;12.50;99.90;;;;;;4401596;28;659229;-74
2023/12/28 10:34:40;;;;;;;25.20;9.90;;;12.40;99.90;;;;;;4394281;28;659991;-74
2023/12/28 10:37:27;;;;;;;8.70;3.93;;;11.90;99.90;;;;;;4426365;28;658107;-74
2023/12/28 10:40:15;;;;;;;13.93;5.87;;;11.50;99.90;;;;;;4403246;28;658336;-74
2023/12/28 10:43:03;;;;;;;11.67;4.77;;;11.80;99.90;;;;;;4415093;28;659033;-74
2023/12/28 10:45:51;;;;;;;22.00;10.00;;;10.70;99.90;;;;;;4419952;28;659122;-74
2023/12/28 10:48:40;;;;;;;20.53;8.80;;;11.20;99.90;;;;;;4393708;28;659617;-75
2023/12/28 10:51:29;;;;;;;16.93;8.63;;;11.50;99.90;;;;;;4402114;28;658992;-74
2023/12/28 10:54:23;;;;;;;18.57;9.30;;;12.00;99.90;;;;;;4424067;28;659173;-74
2023/12/28 10:57:13;;;;;;;15.47;7.33;;;11.70;99.90;;;;;;4396315;28;659103;-74
2023/12/28 11:00:04;;;;;;;10.63;4.87;;;12.10;99.90;;;;;;4406478;28;660075;-74
2023/12/28 11:02:53;;;;;;;16.90;7.70;;;12.40;99.90;;;;;;4397495;28;658686;-74
2023/12/28 11:05:42;;;;;;;19.23;8.27;;;13.00;95.20;;;;;;4403496;28;658902;-74
2023/12/28 11:08:30;;;;;;;16.47;7.80;;;13.10;78.30;;;;;;4415902;28;658885;-75
2023/12/28 11:11:17;;;;;;;13.57;7.13;;;13.30;73.40;;;;;;4431524;28;658660;-75
2023/12/28 11:14:05;;;;;;;22.10;7.73;;;13.50;75.10;;;;;;4425123;28;660123;-75
2023/12/28 11:16:52;;;;;;;15.97;7.00;;;13.60;72.00;;;;;;4443008;28;659050;-73
2023/12/28 11:19:40;;;;;;;16.50;6.67;;;13.60;68.40;;;;;;4439113;28;659500;-74
2023/12/28 11:22:29;;;;;;;12.40;5.07;;;12.90;73.00;;;;;;4434227;28;659039;-74
2023/12/28 11:25:18;;;;;;;18.67;5.57;;;12.10;97.20;;;;;;4441393;28;659187;-74
2023/12/28 11:28:10;;;;;;;16.80;8.40;;;11.90;99.90;;;;;;4408143;28;658884;-74
2023/12/28 11:30:57;;;;;;;12.73;6.13;;;11.80;99.90;;;;;;4395130;28;659152;-75
2023/12/28 11:33:46;;;;;;;14.73;5.30;;;11.90;99.90;;;;;;4435469;28;658798;-74
2023/12/28 11:36:35;;;;;;;19.50;7.70;;;12.70;92.40;;;;;;4419881;28;658964;-74
2023/12/28 11:39:30;;;;;;;13.60;6.13;;;12.30;99.90;;;;;;4423519;28;658601;-74
2023/12/28 11:42:20;;;;;;;13.10;5.13;;;12.60;96.90;;;;;;4419937;28;659365;-74
2023/12/28 11:45:08;;;;;;;13.83;5.70;;;12.60;93.90;;;;;;4408025;28;658448;-75
2023/12/28 11:48:01;;;;;;;20.27;9.10;;;12.60;94.30;;;;;;4432702;28;659104;-73
2023/12/28 11:50:49;;;;;;;14.43;7.03;;;12.80;90.60;;;;;;4411038;28;659162;-73
2023/12/28 11:53:36;;;;;;;22.37;8.00;;;12.70;87.10;;;;;;4421121;28;658426;-74
2023/12/28 11:56:25;;;;;;;16.10;6.17;;;12.20;99.90;;;;;;4407303;28;659892;-74
2023/12/28 11:59:13;;;;;;;9.00;4.50;;;12.80;93.10;;;;;;4413644;28;658591;-74
2023/12/28 12:02:00;;;;;;;9.43;4.30;;;12.90;93.20;;;;;;4440592;28;658951;-74
2023/12/28 12:04:47;;;;;;;9.00;3.47;;;12.70;90.70;;;;;;4429947;28;658601;-74
2023/12/28 12:07:35;;;;;;;19.97;8.13;;;13.00;78.00;;;;;;4440187;28;657591;-74
2023/12/28 12:10:22;;;;;;;13.10;6.70;;;12.40;99.90;;;;;;4425816;28;659601;-74
2023/12/28 12:13:11;;;;;;;7.77;3.63;;;12.80;93.20;;;;;;4406907;28;659298;-74
2023/12/28 12:15:59;;;;;;;14.80;6.87;;;12.80;89.90;;;;;;4411659;28;658455;-74
2023/12/28 12:18:46;;;;;;;15.40;6.83;;;13.40;70.20;;;;;;4424968;28;659245;-74
2023/12/28 12:21:34;;;;;;;12.03;4.50;;;13.70;85.00;;;;;;4387334;28;660143;-74
2023/12/28 12:24:21;;;;;;;17.87;6.73;;;14.20;62.50;;;;;;4410139;28;658884;-74
2023/12/28 12:27:08;;;;;;;12.97;6.77;;;14.60;65.40;;;;;;4391508;28;658509;-74
2023/12/28 12:29:57;;;;;;;10.20;3.47;;;15.00;60.70;;;;;;4414668;28;659093;-74
2023/12/28 12:32:44;;;;;;;13.00;6.13;;;14.20;60.00;;;;;;4391804;28;659065;-74
2023/12/28 12:35:31;;;;;;;12.23;4.30;;;13.50;74.50;;;;;;4404814;28;659688;-74
2023/12/28 12:38:19;;;;;;;10.47;5.43;;;13.20;73.50;;;;;;4388999;28;659468;-74
2023/12/28 12:41:07;;;;;;;12.63;5.87;;;13.50;66.80;;;;;;4412607;28;659756;-74
2023/12/28 12:43:56;;;;;;;9.80;3.93;;;13.10;86.40;;;;;;4389943;28;660109;-74
2023/12/28 12:46:45;;;;;;;12.57;6.00;;;13.20;70.90;;;;;;4374763;28;658886;-74
2023/12/28 12:49:32;;;;;;;11.77;5.63;;;12.60;99.90;;;;;;4406130;28;660313;-74
2023/12/28 12:52:20;;;;;;;4.97;2.53;;;12.70;91.40;;;;;;4413645;28;659771;-74
2023/12/28 12:55:11;;;;;;;9.55;4.28;;;13.10;73.30;;;;;;4391920;28;658621;-74
2023/12/28 12:57:58;;;;;;;14.03;5.80;;;12.70;89.30;;;;;;4392875;28;658559;-74
2023/12/28 13:00:46;;;;;;;10.25;3.08;;;12.70;91.60;;;;;;4408970;28;659919;-74
2023/12/28 13:03:35;;;;;;;11.27;4.73;;;12.20;92.70;;;;;;4391578;28;659751;-74
2023/12/28 13:06:23;;;;;;;4.33;2.07;;;11.60;99.90;;;;;;4400805;28;659768;-74
2023/12/28 13:09:11;;;;;;;14.10;6.40;;;11.10;99.90;;;;;;4413770;28;659794;-75
2023/12/28 13:11:58;;;;;;;8.00;3.87;;;10.70;99.90;;;;;;4380465;28;659960;-74
2023/12/28 13:14:45;;;;;;;14.93;5.60;;;10.70;99.90;;;;;;4411075;28;658897;-73
2023/12/28 13:17:32;;;;;;;11.63;5.60;;;10.50;99.90;;;;;;4390042;28;659896;-74
2023/12/28 13:20:21;;;;;;;12.43;5.93;;;10.60;99.90;;;;;;4429886;28;661079;-75
2023/12/28 13:23:08;;;;;;;15.77;5.20;;;10.60;99.90;;;;;;4402906;28;659710;-75
2023/12/28 13:25:55;;;;;;;12.63;5.13;;;10.80;99.90;;;;;;4415213;28;660152;-74
2023/12/28 13:28:43;;;;;;;9.20;3.77;;;11.60;99.90;;;;;;4397376;28;660261;-75
2023/12/28 13:31:30;;;;;;;12.63;5.27;;;12.10;98.00;;;;;;4418803;28;658449;-74
2023/12/28 13:34:18;;;;;;;5.72;2.65;;;12.10;92.10;;;;;;4404421;28;659356;-74
2023/12/28 13:37:07;;;;;;;10.97;5.53;;;12.20;90.80;;;;;;4414773;28;659594;-75
2023/12/28 13:39:54;;;;;;;10.57;4.87;;;11.80;95.30;;;;;;4402016;28;659525;-74
2023/12/28 13:42:41;;;;;;;11.57;5.00;;;11.40;99.90;;;;;;4420092;28;660294;-74
2023/12/28 13:45:28;;;;;;;8.83;3.80;;;11.20;99.90;;;;;;4401519;28;659614;-74
2023/12/28 13:48:15;;;;;;;8.60;4.20;;;11.00;99.90;;;;;;4424271;28;659564;-75
2023/12/28 13:51:03;;;;;;;12.00;4.47;;;11.00;99.90;;;;;;4397540;28;658386;-75
2023/12/28 13:53:51;;;;;;;8.50;4.43;;;10.90;99.90;;;;;;4422781;28;660820;-75
2023/12/28 13:56:38;;;;;;;11.07;4.30;;;10.60;99.90;;;;;;4396281;28;658922;-75
2023/12/28 13:59:26;;;;;;;6.47;3.13;;;10.40;99.90;;;;;;4419441;28;659507;-74
2023/12/28 14:02:13;;;;;;;10.70;3.97;;;10.40;99.90;;;;;;4406870;28;658386;-74
2023/12/28 14:05:00;;;;;;;7.30;3.97;;;10.30;99.90;;;;;;4431122;28;659604;-75
2023/12/28 14:07:47;;;;;;;8.07;3.77;;;10.20;99.90;;;;;;4417756;28;658886;-75
2023/12/28 14:10:38;;;;;;;9.25;4.22;;;10.20;99.90;;;;;;4427888;28;659086;-74